Latest Coastal Weather Observations for Hillarys Point Boat Harbour

IDW60701

Issued at 3:03 pm WST Friday 25 May 2018 (issued every 10 minutes, with the page automatically refreshed every 10 minutes)

About coastal observations | Map of coastal stations | Coastal observations for WA | Marine services | Other Formats
Station Details ID: 009265 Name: HILLARYS BOAT HARBOUR NTC AWS Lat: -31.83 Lon: 115.74 Height: 0.0 m
Data from the previous 72 hours. | See also: Recent months for locations in Western Australia
Date/Time
WST
Temp
°C
Wind Pressure Rain since
9am
mm
Weather Cloud Vis
km
Sea
Height
m
Swell
Dir  Spd
kts
Gust
kts
hPa Trend Height
m
Period
s
Dir
25/03:00pm 17.4 NW 17 29 1000.2 - - - - - - - - -
25/02:30pm 17.3 WNW 18 30 1000.0 - - - - - - - - -
25/02:00pm 17.7 WNW 17 31 999.7 - - - - - - - - -
25/01:30pm 17.4 WNW 17 28 999.8 - - - - - - - - -
25/01:00pm 17.9 NW 17 30 999.8 - - - - - - - - -
25/12:30pm 17.7 NW 17 31 1000.0 - - - - - - - - -
25/12:00pm 16.9 WNW 15 26 1000.6 - - - - - - - - -
25/11:46am 18.2 WNW 15 27 1000.4 - - - - - - - - -
25/11:30am 17.8 WNW 14 23 1000.6 - - - - - - - - -
25/11:00am 17.3 W 17 24 1000.8 - - - - - - - - -
25/10:30am 16.7 W 18 29 1000.7 - - - - - - - - -
25/10:11am 14.6 W 19 29 1000.9 - - - - - - - - -
25/10:00am 16.6 W 19 28 1000.8 - - - - - - - - -
25/09:30am 15.7 W 23 41 1001.2 - - - - - - - - -
25/09:23am 14.9 WNW 17 40 1001.1 - - - - - - - - -
25/09:00am 14.6 WNW 17 29 1000.6 - - - - - - - - -
25/08:30am 17.4 WNW 17 29 999.7 - - - - - - - - -
25/08:00am 18.3 NW 19 31 999.3 - - - - - - - - -
25/07:30am 18.1 NW 18 30 999.1 - - - - - - - - -
25/07:07am 17.5 NW 15 25 998.9 - - - - - - - - -
25/07:00am 16.7 NW 14 25 999.1 - - - - - - - - -
25/06:33am 18.3 NW 19 30 998.5 - - - - - - - - -
25/06:30am 18.3 NW 20 30 998.6 - - - - - - - - -
25/06:00am 18.5 NW 18 30 998.3 - - - - - - - - -
25/05:30am 18.4 NNW 15 25 998.1 - - - - - - - - -
25/05:00am 18.1 NW 16 26 998.2 - - - - - - - - -
25/04:30am 17.3 NW 20 33 998.1 - - - - - - - - -
25/04:00am 18.6 NW 17 33 998.1 - - - - - - - - -
25/03:30am 18.8 NW 16 29 998.0 - - - - - - - - -
25/03:09am 18.8 NW 16 26 997.8 - - - - - - - - -
25/03:00am 18.9 NW 16 26 998.0 - - - - - - - - -
25/02:30am 19.0 NW 17 27 997.9 - - - - - - - - -
25/02:00am 18.9 WNW 17 28 998.0 - - - - - - - - -
25/01:30am 18.8 NW 16 26 998.1 - - - - - - - - -
25/01:00am 19.2 NW 17 28 998.2 - - - - - - - - -
25/12:35am 19.0 NW 16 26 998.1 - - - - - - - - -
25/12:30am 19.0 NW 16 26 998.0 - - - - - - - - -
25/12:01am 18.6 NW 15 26 998.2 - - - - - - - - -
25/12:00am 18.5 NW 14 26 998.2 - - - - - - - - -
 
Date/Time
WST
Temp
°C
Wind Pressure Rain since
9am
mm
Weather Cloud Vis
km
Sea
Height
m
Swell
Dir  Spd
kts
Gust
kts
hPa Trend Height
m
Period
s
Dir
24/11:30pm 17.9 NW 21 33 998.3 - - - - - - - - -
24/11:07pm 19.7 NW 15 28 998.2 - - - - - - - - -
24/11:00pm 19.5 NW 14 23 997.6 - - - - - - - - -
24/10:30pm 18.0 NNW 9 16 997.2 - - - - - - - - -
24/10:00pm 17.8 NNW 12 23 997.7 - - - - - - - - -
24/09:30pm 17.6 NNE 14 21 997.0 - - - - - - - - -
24/09:00pm 17.7 NNE 19 33 996.6 - - - - - - - - -
24/08:31pm 18.4 NNE 15 27 997.9 - - - - - - - - -
24/08:30pm 18.5 NNE 14 27 997.8 - - - - - - - - -
24/08:00pm 19.0 NNE 9 14 999.3 - - - - - - - - -
24/07:31pm 19.5 NNW 15 25 999.4 - - - - - - - - -
24/07:30pm 19.4 NNW 16 25 999.5 - - - - - - - - -
24/07:25pm 20.2 NNW 14 30 999.2 - - - - - - - - -
24/07:19pm 23.7 N 10 30 998.7 - - - - - - - - -
24/07:00pm 26.5 NNE 7 17 996.5 - - - - - - - - -
24/06:30pm 26.0 NE 5 10 997.4 - - - - - - - - -
24/06:00pm 26.6 NNE 7 14 998.4 - - - - - - - - -
24/05:30pm 26.4 N 7 11 999.5 - - - - - - - - -
24/05:00pm 23.4 N 4 7 1000.1 - - - - - - - - -
24/04:30pm 23.0 N 7 13 1000.7 - - - - - - - - -
24/04:00pm 27.0 N 8 13 1001.2 - - - - - - - - -
24/03:30pm 25.6 N 5 11 1001.7 - - - - - - - - -
24/03:00pm 23.4 N 8 12 1002.3 - - - - - - - - -
24/02:30pm 23.5 N 8 14 1003.4 - - - - - - - - -
24/02:00pm 25.3 NNW 8 15 1003.8 - - - - - - - - -
24/01:30pm 24.7 NNW 7 13 1004.5 - - - - - - - - -
24/01:00pm 26.2 N 10 17 1005.2 - - - - - - - - -
24/12:30pm 25.9 N 11 19 1006.0 - - - - - - - - -
24/12:00pm 26.1 N 11 21 1006.9 - - - - - - - - -
24/11:30am 24.5 NNE 9 17 1007.6 - - - - - - - - -
24/11:00am 23.5 NNE 10 18 1008.1 - - - - - - - - -
24/10:30am 23.2 NNE 9 17 1008.5 - - - - - - - - -
24/10:00am 21.8 NE 9 15 1009.0 - - - - - - - - -
24/09:30am 20.9 NNE 10 17 1009.5 - - - - - - - - -
24/09:00am 19.7 NE 9 16 1010.1 - - - - - - - - -
24/08:30am 19.1 NNE 9 15 1010.2 - - - - - - - - -
24/08:00am 18.9 NNE 8 14 1010.1 - - - - - - - - -
24/07:30am 18.5 NE 9 17 1010.0 - - - - - - - - -
24/07:00am 18.4 NNE 9 16 1010.0 - - - - - - - - -
24/06:30am 18.0 NE 10 17 1010.0 - - - - - - - - -
24/06:00am 18.0 NNE 10 18 1010.1 - - - - - - - - -
24/05:30am 18.3 NE 9 15 1010.1 - - - - - - - - -
24/05:00am 18.2 NNE 10 16 1010.2 - - - - - - - - -
24/04:30am 18.2 NNE 9 15 1010.6 - - - - - - - - -
24/04:00am 18.3 NE 9 17 1010.5 - - - - - - - - -
24/03:30am 18.3 NE 8 15 1010.7 - - - - - - - - -
24/03:00am 17.3 NE 5 8 1011.2 - - - - - - - - -
24/02:30am 16.8 ENE 4 6 1011.6 - - - - - - - - -
24/02:00am 17.2 NE 3 7 1011.9 - - - - - - - - -
24/01:30am 17.6 ENE 6 9 1012.2 - - - - - - - - -
24/01:00am 17.5 NE 4 7 1012.7 - - - - - - - - -
24/12:30am 18.0 ENE 7 11 1012.8 - - - - - - - - -
24/12:00am 17.9 ENE 7 10 1013.0 - - - - - - - - -
 
Date/Time
WST
Temp
°C
Wind Pressure Rain since
9am
mm
Weather Cloud Vis
km
Sea
Height
m
Swell
Dir  Spd
kts
Gust
kts
hPa Trend Height
m
Period
s
Dir
23/11:30pm 17.3 ENE 7 10 1013.3 - - - - - - - - -
23/11:00pm 17.7 ENE 7 10 1013.8 - - - - - - - - -
23/10:30pm 18.4 ENE 6 9 1014.2 - - - - - - - - -
23/10:00pm 18.7 ENE 3 6 1014.4 - - - - - - - - -
23/09:30pm 19.5 ENE 4 5 1014.7 - - - - - - - - -
23/09:00pm 19.1 ENE 3 5 1014.6 - - - - - - - - -
23/08:30pm 20.9 ESE 2 3 1014.6 - - - - - - - - -
23/08:00pm 18.7 CALM 0 1 1014.8 - - - - - - - - -
23/07:30pm 20.3 E 1 2 1015.0 - - - - - - - - -
23/07:00pm 20.4 CALM 0 1 1015.0 - - - - - - - - -
23/06:30pm 19.7 CALM 0 1 1015.0 - - - - - - - - -
23/06:00pm 21.2 CALM 0 1 1014.8 - - - - - - - - -
23/05:30pm 21.4 SE 1 3 1014.7 - - - - - - - - -
23/05:00pm 22.5 S 2 4 1014.8 - - - - - - - - -
23/04:30pm 23.3 SSE 3 5 1014.8 - - - - - - - - -
23/04:00pm 23.3 SSE 1 3 1015.1 - - - - - - - - -
23/03:30pm 24.6 WSW 2 4 1015.2 - - - - - - - - -
23/03:00pm 23.8 W 1 5 1015.2 - - - - - - - - -
23/02:30pm 26.4 NNE 4 11 1015.4 - - - - - - - - -
23/02:00pm 26.5 NNE 6 11 1015.5 - - - - - - - - -
23/01:30pm 26.4 NNE 8 13 1015.9 - - - - - - - - -
23/01:00pm 26.4 NNE 6 11 1016.2 - - - - - - - - -
23/12:30pm 26.0 NNE 8 13 1016.8 - - - - - - - - -
23/12:00pm 25.4 NNE 8 14 1017.5 - - - - - - - - -
23/11:30am 24.8 NNE 8 12 1018.1 - - - - - - - - -
23/11:00am 23.9 NNE 7 13 1018.6 - - - - - - - - -
23/10:30am 22.8 NNE 8 15 1018.8 - - - - - - - - -
23/10:00am 21.4 NE 6 12 1019.1 - - - - - - - - -
23/09:30am 19.9 NE 7 13 1019.3 - - - - - - - - -
23/09:00am 18.9 NE 8 18 1019.4 - - - - - - - - -
23/08:30am 18.1 NE 8 14 1019.4 - - - - - - - - -
23/08:00am 17.1 ENE 8 13 1019.3 - - - - - - - - -
23/07:30am 16.5 NE 8 15 1019.1 - - - - - - - - -
23/07:00am 16.4 ENE 8 13 1018.9 - - - - - - - - -
23/06:30am 16.4 ENE 9 15 1018.7 - - - - - - - - -
23/06:00am 16.1 ENE 9 13 1018.8 - - - - - - - - -
23/05:30am 16.2 ENE 8 14 1018.8 - - - - - - - - -
23/05:00am 16.8 ENE 9 13 1018.9 - - - - - - - - -
23/04:30am 17.1 ENE 9 13 1018.9 - - - - - - - - -
23/04:00am 17.0 ENE 8 11 1019.2 - - - - - - - - -
23/03:30am 17.1 ENE 8 12 1019.3 - - - - - - - - -
23/03:00am 17.7 ENE 8 11 1019.4 - - - - - - - - -
23/02:30am 18.3 ENE 9 13 1019.4 - - - - - - - - -
23/02:00am 17.6 ENE 9 13 1019.6 - - - - - - - - -
23/01:30am 17.1 ENE 7 11 1019.7 - - - - - - - - -
23/01:00am 16.7 ENE 7 10 1019.9 - - - - - - - - -
23/12:30am 16.6 ENE 7 11 1020.1 - - - - - - - - -
23/12:00am 16.5 ENE 7 9 1020.2 - - - - - - - - -
 
Date/Time
WST
Temp
°C
Wind Pressure Rain since
9am
mm
Weather Cloud Vis
km
Sea
Height
m
Swell
Dir  Spd
kts
Gust
kts
hPa Trend Height
m
Period
s
Dir
22/11:30pm 17.0 ENE 6 10 1020.4 - - - - - - - - -
22/11:00pm 17.2 ENE 6 9 1020.6 - - - - - - - - -
22/10:30pm 17.9 ENE 6 9 1020.7 - - - - - - - - -
22/10:00pm 18.8 ENE 6 8 1020.7 - - - - - - - - -
22/09:30pm 19.0 ENE 5 7 1020.7 - - - - - - - - -
22/09:00pm 20.1 ENE 4 6 1020.7 - - - - - - - - -
22/08:30pm 20.6 E 4 6 1020.6 - - - - - - - - -
22/08:00pm 20.3 SE 1 4 1020.3 - - - - - - - - -
22/07:30pm 20.1 SSE 2 4 1020.3 - - - - - - - - -
22/07:00pm 20.2 ESE 1 4 1020.3 - - - - - - - - -
22/06:30pm 20.5 SE 1 5 1020.1 - - - - - - - - -
22/06:00pm 20.5 SE 3 5 1019.9 - - - - - - - - -
22/05:30pm 20.7 SSE 3 6 1019.8 - - - - - - - - -
22/05:00pm 21.0 SSE 2 4 1019.7 - - - - - - - - -
22/04:30pm 21.4 S 1 3 1019.6 - - - - - - - - -
22/04:00pm 21.8 S 2 4 1019.6 - - - - - - - - -
22/03:30pm 22.1 S 3 5 1019.6 - - - - - - - - -

Other Formats:

Comma delimited format used in spreadsheet applications
http://www.bom.gov.au/fwo/IDW60701/IDW60701.95605.axf

JavaScript Object Notation format (JSON) in row-major order
http://www.bom.gov.au/fwo/IDW60701/IDW60701.95605.json